createdAt,value
2018-11-03T00:00:50.370Z,30.03
2018-11-03T00:10:51.678Z,25.97
2018-11-03T00:20:52.969Z,32.17
2018-11-03T00:30:54.260Z,33.00
2018-11-03T00:40:55.558Z,30.57
2018-11-03T00:50:56.853Z,36.00
2018-11-03T01:00:58.145Z,28.37
2018-11-03T01:10:59.420Z,33.57
2018-11-03T01:21:00.693Z,29.07
2018-11-03T01:31:01.964Z,25.10
2018-11-03T01:41:03.231Z,26.63
2018-11-03T01:51:04.521Z,24.80
2018-11-03T02:01:05.841Z,22.70
2018-11-03T02:11:07.118Z,21.50
2018-11-03T02:21:08.407Z,32.30
2018-11-03T02:31:09.700Z,26.00
2018-11-03T02:41:10.997Z,25.73
2018-11-03T02:51:12.264Z,27.37
2018-11-03T03:01:13.540Z,23.57
2018-11-03T03:11:14.835Z,26.60
2018-11-03T03:21:16.167Z,28.10
2018-11-03T03:31:18.208Z,31.67
2018-11-03T03:41:19.468Z,23.93
2018-11-03T03:51:20.792Z,30.63
2018-11-03T04:01:22.829Z,42.47
2018-11-03T04:11:24.120Z,36.50
2018-11-03T04:21:25.418Z,37.67
2018-11-03T04:31:26.678Z,34.27
2018-11-03T04:41:27.951Z,42.10
2018-11-03T04:51:29.229Z,38.97
2018-11-03T05:01:30.507Z,49.27
2018-11-03T05:11:31.778Z,39.40
2018-11-03T05:21:33.065Z,41.27
2018-11-03T05:31:34.326Z,34.27
2018-11-03T05:41:35.599Z,40.03
2018-11-03T05:51:36.867Z,45.67
2018-11-03T06:01:38.169Z,44.43
2018-11-03T06:11:39.488Z,45.73
2018-11-03T06:21:41.542Z,37.23
2018-11-03T06:31:43.602Z,34.20
2018-11-03T06:41:44.922Z,39.10
2018-11-03T06:51:46.178Z,32.27
2018-11-03T07:01:47.447Z,31.47
2018-11-03T07:11:48.764Z,36.17
2018-11-03T07:21:50.164Z,41.67
2018-11-03T07:31:51.285Z,41.03
2018-11-03T07:41:52.563Z,36.57
2018-11-03T07:51:53.846Z,61.00
2018-11-03T08:01:55.104Z,68.07
2018-11-03T08:11:57.171Z,58.50
2018-11-03T08:21:58.481Z,63.10
2018-11-03T08:31:59.793Z,95.47
2018-11-03T08:42:01.090Z,122.50
2018-11-03T08:52:02.343Z,94.57
2018-11-03T09:02:03.599Z,120.53
2018-11-03T09:12:05.643Z,111.30
2018-11-03T09:22:06.932Z,99.43
2018-11-03T09:32:08.198Z,108.33
2018-11-03T09:42:09.477Z,102.33
2018-11-03T09:52:10.798Z,74.20
2018-11-03T10:02:12.083Z,96.20
2018-11-03T10:12:13.373Z,76.00
2018-11-03T10:22:14.729Z,80.00
2018-11-03T10:32:16.766Z,69.83
2018-11-03T10:42:18.053Z,62.43
2018-11-03T10:52:19.314Z,57.13
2018-11-03T11:02:20.591Z,53.20
2018-11-03T11:12:22.626Z,43.07
2018-11-03T11:22:23.963Z,43.10
2018-11-03T11:32:25.250Z,39.87
2018-11-03T11:42:26.518Z,41.17
2018-11-03T11:52:27.812Z,40.73
2018-11-03T12:02:29.175Z,37.10
2018-11-03T12:12:30.378Z,38.23
2018-11-03T12:22:32.435Z,38.83
2018-11-03T12:32:33.769Z,39.53
2018-11-03T12:42:35.048Z,36.40
2018-11-03T12:52:36.329Z,40.17
2018-11-03T13:02:37.595Z,39.00
2018-11-03T13:12:38.874Z,37.03
2018-11-03T13:22:40.973Z,45.60
2018-11-03T13:32:42.220Z,44.93
2018-11-03T13:42:43.510Z,45.63
2018-11-03T13:52:44.813Z,44.83
2018-11-03T14:02:46.112Z,40.87
2018-11-03T14:12:47.411Z,42.17
2018-11-03T14:22:48.674Z,41.70
2018-11-03T14:32:50.739Z,45.17
2018-11-03T14:42:52.006Z,36.17
2018-11-03T14:52:53.260Z,40.40
2018-11-03T15:03:00.008Z,44.97
2018-11-03T15:13:02.055Z,44.27
2018-11-03T15:23:03.335Z,49.67
2018-11-03T15:33:05.229Z,53.13
2018-11-03T15:43:06.513Z,50.93
2018-11-03T15:53:07.773Z,54.90
2018-11-03T16:03:09.148Z,56.37
2018-11-03T16:13:10.410Z,55.10
2018-11-03T16:23:12.455Z,65.80
2018-11-03T16:33:13.729Z,61.23
2018-11-03T16:43:15.135Z,63.37
2018-11-03T16:53:16.424Z,61.40
2018-11-03T17:03:17.698Z,66.57
2018-11-03T17:13:19.865Z,69.80
2018-11-03T17:23:21.254Z,66.50
2018-11-03T17:33:22.487Z,65.40
2018-11-03T17:43:23.838Z,71.50
2018-11-03T17:53:25.133Z,65.00
2018-11-03T18:03:26.433Z,67.27
2018-11-03T18:13:27.705Z,63.77
2018-11-03T18:23:29.722Z,69.13
2018-11-03T18:33:31.208Z,72.57
2018-11-03T18:43:32.291Z,77.13
2018-11-03T18:53:33.563Z,75.00
2018-11-03T19:03:34.851Z,56.13
2018-11-03T19:13:36.175Z,65.47
2018-11-03T19:23:37.520Z,57.03
2018-11-03T19:33:38.810Z,62.27
2018-11-03T19:43:40.130Z,57.07
2018-11-03T19:53:41.404Z,62.63
2018-11-03T20:03:42.680Z,56.37
2018-11-03T20:13:44.762Z,55.40
2018-11-03T20:23:46.063Z,54.83
2018-11-03T20:33:47.314Z,48.20
2018-11-03T20:43:48.564Z,54.40
2018-11-03T20:53:49.880Z,42.10
2018-11-03T21:03:51.558Z,35.33
2018-11-03T21:13:52.826Z,33.77
2018-11-03T21:23:54.124Z,37.47
2018-11-03T21:33:55.441Z,36.97
2018-11-03T21:43:56.677Z,36.43
2018-11-03T21:53:58.707Z,55.73
2018-11-03T22:04:00.025Z,46.90
2018-11-03T22:14:01.284Z,47.07
2018-11-03T22:24:02.536Z,41.23
2018-11-03T22:34:03.792Z,38.43
2018-11-03T22:44:06.139Z,39.03
2018-11-03T22:54:07.410Z,41.47
2018-11-03T23:04:09.427Z,34.33
2018-11-03T23:14:10.706Z,32.97
2018-11-03T23:24:11.984Z,31.70
2018-11-03T23:34:13.266Z,30.87
2018-11-03T23:44:15.293Z,31.70
2018-11-03T23:54:16.555Z,32.43
